createdAt,value
2023-04-26T00:00:19.216Z,5.30
2023-04-26T00:03:21.063Z,5.40
2023-04-26T00:06:22.860Z,4.90
2023-04-26T00:09:24.676Z,5.30
2023-04-26T00:12:26.358Z,5.20
2023-04-26T00:15:27.909Z,5.30
2023-04-26T00:18:29.564Z,5.50
2023-04-26T00:21:31.751Z,5.10
2023-04-26T00:24:33.392Z,5.10
2023-04-26T00:27:35.136Z,5.10
2023-04-26T00:30:41.142Z,5.20
2023-04-26T00:33:43.468Z,5.10
2023-04-26T00:36:45.953Z,5.00
2023-04-26T00:39:47.637Z,4.90
2023-04-26T00:42:49.220Z,4.90
2023-04-26T00:45:51.973Z,5.20
2023-04-26T00:48:53.722Z,5.30
2023-04-26T00:51:55.724Z,5.10
2023-04-26T00:55:00.441Z,4.80
2023-04-26T00:58:02.430Z,5.10
2023-04-26T01:01:04.160Z,4.90
2023-04-26T01:04:06.123Z,5.00
2023-04-26T01:07:08.262Z,4.60
2023-04-26T01:10:10.418Z,4.80
2023-04-26T01:13:12.801Z,4.80
2023-04-26T01:16:15.878Z,4.50
2023-04-26T01:19:18.152Z,4.50
2023-04-26T01:22:19.703Z,4.90
2023-04-26T01:25:21.433Z,4.80
2023-04-26T01:28:23.202Z,4.50
2023-04-26T01:31:24.903Z,4.70
2023-04-26T01:34:26.588Z,4.50
2023-04-26T01:37:28.244Z,5.10
2023-04-26T01:40:29.792Z,4.70
2023-04-26T01:43:31.523Z,4.90
2023-04-26T01:46:33.345Z,4.80
2023-04-26T01:49:35.159Z,4.20
2023-04-26T01:52:36.781Z,4.30
2023-04-26T01:55:38.612Z,4.60
2023-04-26T01:58:40.258Z,4.60
2023-04-26T02:01:43.277Z,4.30
2023-04-26T02:04:44.865Z,4.40
2023-04-26T02:07:46.472Z,4.30
2023-04-26T02:10:48.036Z,4.20
2023-04-26T02:13:49.626Z,4.40
2023-04-26T02:16:51.850Z,4.50
2023-04-26T02:19:53.857Z,4.50
2023-04-26T02:22:55.496Z,4.10
2023-04-26T02:25:57.126Z,4.30
2023-04-26T02:28:58.763Z,4.30
2023-04-26T02:32:00.439Z,4.20
2023-04-26T02:35:02.447Z,4.40
2023-04-26T02:38:04.708Z,4.20
2023-04-26T02:41:06.405Z,4.20
2023-04-26T02:44:08.309Z,4.20
2023-04-26T02:47:10.801Z,5.10
2023-04-26T02:50:12.482Z,4.20
2023-04-26T02:53:14.070Z,4.40
2023-04-26T02:56:16.259Z,4.40
2023-04-26T02:59:17.880Z,4.20
2023-04-26T03:02:19.563Z,4.10
2023-04-26T03:05:21.459Z,4.30
2023-04-26T03:08:23.174Z,4.30
2023-04-26T03:11:24.866Z,4.20
2023-04-26T03:14:29.434Z,3.80
2023-04-26T03:17:36.812Z,4.20
2023-04-26T03:21:10.771Z,4.20
2023-04-26T03:25:04.872Z,5.40
2023-04-26T03:28:44.714Z,4.30
2023-04-26T03:35:02.603Z,4.00
2023-04-26T03:38:10.052Z,5.80
2023-04-26T03:41:11.930Z,3.60
2023-04-26T03:44:31.294Z,3.80
2023-04-26T03:47:33.058Z,4.00
2023-04-26T03:50:34.678Z,4.20
2023-04-26T03:53:36.335Z,4.10
2023-04-26T03:56:38.751Z,4.10
2023-04-26T03:59:40.357Z,3.90
2023-04-26T04:02:42.864Z,3.60
2023-04-26T04:05:44.868Z,4.30
2023-04-26T04:08:46.482Z,3.80
2023-04-26T04:11:48.122Z,3.80
2023-04-26T04:14:49.703Z,3.70
2023-04-26T04:17:51.372Z,4.10
2023-04-26T04:20:52.995Z,3.50
2023-04-26T04:23:54.901Z,3.60
2023-04-26T04:26:56.520Z,4.10
2023-04-26T04:29:58.082Z,3.90
2023-04-26T04:33:00.206Z,4.00
2023-04-26T04:36:01.845Z,3.70
2023-04-26T04:39:04.133Z,3.80
2023-04-26T04:42:06.100Z,3.90
2023-04-26T04:45:08.210Z,4.20
2023-04-26T04:48:11.355Z,4.00
2023-04-26T04:51:13.081Z,3.90
2023-04-26T04:54:16.630Z,4.10
2023-04-26T04:57:18.791Z,4.20
2023-04-26T05:00:21.090Z,3.90
2023-04-26T05:03:22.881Z,4.20
2023-04-26T05:06:25.251Z,3.80
2023-04-26T05:09:27.280Z,4.10
2023-04-26T05:12:28.871Z,4.10
2023-04-26T05:15:30.576Z,4.40
2023-04-26T05:18:32.145Z,4.30
2023-04-26T05:21:33.691Z,4.10
2023-04-26T05:24:35.411Z,4.30
2023-04-26T05:27:40.042Z,4.50
2023-04-26T05:30:41.731Z,4.80
2023-04-26T05:33:43.271Z,4.50
2023-04-26T05:36:44.827Z,4.60
2023-04-26T05:39:46.376Z,4.70
2023-04-26T05:42:48.003Z,4.70
2023-04-26T05:45:53.757Z,4.90
2023-04-26T05:48:55.361Z,5.30
2023-04-26T05:52:00.241Z,4.90
2023-04-26T05:55:04.107Z,5.40
2023-04-26T05:58:06.363Z,5.10
2023-04-26T06:01:08.736Z,4.90
2023-04-26T06:04:11.046Z,5.60
2023-04-26T06:07:13.125Z,5.30
2023-04-26T06:10:14.653Z,6.00
2023-04-26T06:13:16.504Z,5.40
2023-04-26T06:16:18.094Z,5.90
2023-04-26T06:19:19.775Z,6.00
2023-04-26T06:22:21.401Z,6.00
2023-04-26T06:25:23.102Z,5.70
2023-04-26T06:28:24.691Z,6.20
2023-04-26T06:31:26.290Z,6.40
2023-04-26T06:34:27.989Z,6.30
2023-04-26T06:37:29.560Z,6.40
2023-04-26T06:40:31.288Z,6.60
2023-04-26T06:43:32.817Z,6.70
2023-04-26T06:46:34.573Z,6.80
2023-04-26T06:49:36.556Z,7.40
2023-04-26T06:52:38.768Z,7.40
2023-04-26T06:55:40.326Z,7.50
2023-04-26T06:59:02.581Z,7.80
2023-04-26T07:02:04.227Z,7.60
2023-04-26T07:05:06.432Z,7.40
2023-04-26T07:08:08.166Z,7.80
2023-04-26T07:11:11.028Z,7.80
2023-04-26T07:14:12.666Z,7.40
2023-04-26T07:17:14.221Z,7.90
2023-04-26T07:20:19.699Z,8.40
2023-04-26T07:23:21.320Z,8.10
2023-04-26T07:26:23.746Z,8.60
2023-04-26T07:29:25.442Z,8.50
2023-04-26T07:32:27.065Z,8.70
2023-04-26T07:35:28.800Z,8.30
2023-04-26T07:38:30.459Z,8.60
2023-04-26T07:41:32.181Z,9.10
2023-04-26T07:44:34.162Z,8.80
2023-04-26T07:47:36.259Z,9.50
2023-04-26T07:50:37.818Z,9.50
2023-04-26T07:53:41.089Z,9.20
2023-04-26T07:56:42.708Z,9.20
2023-04-26T07:59:44.261Z,9.10
2023-04-26T08:02:49.326Z,8.90
2023-04-26T08:05:51.293Z,8.90
2023-04-26T08:08:53.837Z,9.20
2023-04-26T08:11:55.566Z,9.40
2023-04-26T08:14:57.094Z,9.30
2023-04-26T08:17:58.652Z,9.80
2023-04-26T08:21:00.492Z,9.70
2023-04-26T08:24:02.056Z,9.30
2023-04-26T08:27:03.739Z,9.60
2023-04-26T08:30:06.055Z,9.50
2023-04-26T08:33:08.853Z,9.40
2023-04-26T08:36:10.468Z,9.00
2023-04-26T08:39:12.302Z,8.70
2023-04-26T08:42:16.118Z,9.00
2023-04-26T08:45:17.943Z,9.10
2023-04-26T08:48:19.803Z,9.00
2023-04-26T08:51:21.963Z,9.10
2023-04-26T08:54:25.144Z,8.90
2023-04-26T08:57:27.459Z,9.20
2023-04-26T09:00:30.345Z,9.40
2023-04-26T09:03:33.713Z,9.40
2023-04-26T09:06:37.035Z,9.40
2023-04-26T09:09:42.317Z,9.30
2023-04-26T09:12:44.155Z,9.60
2023-04-26T09:15:48.529Z,9.80
2023-04-26T09:18:57.273Z,10.00
2023-04-26T09:21:58.890Z,10.10
2023-04-26T09:25:01.529Z,11.90
2023-04-26T09:28:19.522Z,9.90
2023-04-26T09:31:39.344Z,9.60
2023-04-26T09:34:46.761Z,9.60
2023-04-26T09:38:13.861Z,9.40
2023-04-26T09:41:16.046Z,9.30
2023-04-26T09:44:24.900Z,9.50
2023-04-26T09:47:26.640Z,9.80
2023-04-26T09:50:32.023Z,9.30
2023-04-26T09:53:41.585Z,10.20
2023-04-26T09:56:58.743Z,9.90
2023-04-26T10:00:08.330Z,9.90
2023-04-26T10:03:10.220Z,10.40
2023-04-26T10:06:15.915Z,11.30
2023-04-26T10:09:18.291Z,10.90
2023-04-26T10:12:20.737Z,10.70
2023-04-26T10:15:22.589Z,10.70
2023-04-26T10:18:24.246Z,10.80
2023-04-26T10:21:35.073Z,11.30
2023-04-26T10:24:36.735Z,10.50
2023-04-26T10:27:44.459Z,10.50
2023-04-26T10:30:59.360Z,11.20
2023-04-26T10:34:21.030Z,11.40
2023-04-26T10:37:22.576Z,11.30
2023-04-26T10:40:26.357Z,11.60
2023-04-26T10:43:28.590Z,11.40
2023-04-26T10:46:40.846Z,10.90
2023-04-26T10:49:46.593Z,11.00
2023-04-26T10:53:05.746Z,11.00
2023-04-26T10:56:08.184Z,11.20
2023-04-26T11:02:16.566Z,11.60
2023-04-26T11:05:47.609Z,12.90
2023-04-26T11:08:49.188Z,11.60
2023-04-26T11:11:53.784Z,11.60
2023-04-26T11:14:56.296Z,11.30
2023-04-26T11:17:58.026Z,11.20
2023-04-26T11:21:00.178Z,11.30
2023-04-26T11:24:01.891Z,11.20
2023-04-26T11:27:09.663Z,11.20
2023-04-26T11:30:12.331Z,11.20
2023-04-26T11:33:24.669Z,10.80
2023-04-26T11:36:27.049Z,10.90
2023-04-26T11:39:29.156Z,11.00
2023-04-26T11:42:31.021Z,10.50
2023-04-26T11:45:34.915Z,11.10
2023-04-26T11:48:38.324Z,12.10
2023-04-26T11:51:40.308Z,10.70
2023-04-26T11:54:44.073Z,11.20
2023-04-26T11:57:45.950Z,11.40
2023-04-26T12:01:04.726Z,11.30
2023-04-26T12:04:10.497Z,12.00
2023-04-26T12:07:12.360Z,11.60
2023-04-26T12:10:18.909Z,11.80
2023-04-26T12:13:21.245Z,13.30
2023-04-26T12:16:26.848Z,12.40
2023-04-26T12:19:32.823Z,12.20
2023-04-26T12:22:34.373Z,12.30
2023-04-26T12:25:41.266Z,12.20
2023-04-26T12:28:43.118Z,12.20
2023-04-26T12:31:44.705Z,12.30
2023-04-26T12:34:46.487Z,11.70
2023-04-26T12:37:49.471Z,11.70
2023-04-26T12:40:51.408Z,12.10
2023-04-26T12:43:52.981Z,12.30
2023-04-26T12:46:54.950Z,12.00
2023-04-26T12:49:56.702Z,12.10
2023-04-26T12:52:58.282Z,12.60
2023-04-26T12:55:59.946Z,13.10
2023-04-26T12:59:01.654Z,13.40
2023-04-26T13:02:03.718Z,13.50
2023-04-26T13:05:06.637Z,13.60
2023-04-26T13:08:08.257Z,13.20
2023-04-26T13:11:09.826Z,13.00
2023-04-26T13:14:11.782Z,12.60
2023-04-26T13:17:13.310Z,12.40
2023-04-26T13:20:14.924Z,12.60
2023-04-26T13:23:16.510Z,12.40
2023-04-26T13:26:18.283Z,12.50
2023-04-26T13:29:19.889Z,12.40
2023-04-26T13:32:22.179Z,12.20
2023-04-26T13:35:23.835Z,11.90
2023-04-26T13:38:26.807Z,12.30
2023-04-26T13:41:33.237Z,12.10
2023-04-26T13:44:35.112Z,12.10
2023-04-26T13:47:36.958Z,12.30
2023-04-26T13:50:38.551Z,12.30
2023-04-26T13:53:40.591Z,12.40
2023-04-26T13:56:42.188Z,12.70
2023-04-26T13:59:43.784Z,12.60
2023-04-26T14:02:45.555Z,12.60
2023-04-26T14:05:47.211Z,12.40
2023-04-26T14:08:48.792Z,12.60
2023-04-26T14:12:00.872Z,12.80
2023-04-26T14:15:09.913Z,13.10
2023-04-26T14:18:11.518Z,13.30
2023-04-26T14:21:13.180Z,13.00
2023-04-26T14:24:14.805Z,12.90
2023-04-26T14:27:16.486Z,13.40
2023-04-26T14:30:18.142Z,15.30
2023-04-26T14:33:19.776Z,13.60
2023-04-26T14:36:21.620Z,13.70
2023-04-26T14:39:24.693Z,13.90
2023-04-26T14:42:26.713Z,15.40
2023-04-26T14:45:40.914Z,13.60
2023-04-26T14:48:45.516Z,13.30
2023-04-26T14:51:47.228Z,13.40
2023-04-26T14:54:48.958Z,13.10
2023-04-26T14:57:50.656Z,13.00
2023-04-26T15:00:53.459Z,12.70
2023-04-26T15:03:57.625Z,13.10
2023-04-26T15:07:01.047Z,13.20
2023-04-26T15:10:02.908Z,13.40
2023-04-26T15:13:04.536Z,13.40
2023-04-26T15:16:08.038Z,13.50
2023-04-26T15:19:09.927Z,13.70
2023-04-26T15:22:11.942Z,13.40
2023-04-26T15:25:13.758Z,15.40
2023-04-26T15:28:16.589Z,13.70
2023-04-26T15:31:20.927Z,14.60
2023-04-26T15:34:25.522Z,12.90
2023-04-26T15:37:27.160Z,13.30
2023-04-26T15:40:28.740Z,12.50
2023-04-26T15:43:30.318Z,12.80
2023-04-26T15:46:32.015Z,12.50
2023-04-26T15:49:33.727Z,12.90
2023-04-26T15:52:39.670Z,13.60
2023-04-26T15:55:41.593Z,12.50
2023-04-26T15:58:47.289Z,12.40
2023-04-26T16:01:48.917Z,12.30
2023-04-26T16:04:50.733Z,12.40
2023-04-26T16:07:52.374Z,12.60
2023-04-26T16:10:58.369Z,14.90
2023-04-26T16:14:01.319Z,12.10
2023-04-26T16:17:04.870Z,12.40
2023-04-26T16:20:08.025Z,12.50
2023-04-26T16:23:10.072Z,12.00
2023-04-26T16:26:11.873Z,12.40
2023-04-26T16:29:14.155Z,12.30
2023-04-26T16:32:16.031Z,12.10
2023-04-26T16:35:17.791Z,12.20
2023-04-26T16:38:20.026Z,12.10
2023-04-26T16:41:23.147Z,11.90
2023-04-26T16:44:25.146Z,12.20
2023-04-26T16:47:26.700Z,14.10
2023-04-26T16:50:28.501Z,11.50
2023-04-26T16:53:30.897Z,11.80
2023-04-26T16:56:32.862Z,11.70
2023-04-26T16:59:34.438Z,11.20
2023-04-26T17:02:36.203Z,13.80
2023-04-26T17:05:43.489Z,11.50
2023-04-26T17:08:45.498Z,11.70
2023-04-26T17:11:47.121Z,12.60
2023-04-26T17:14:48.977Z,11.40
2023-04-26T17:17:50.760Z,11.40
2023-04-26T17:20:53.702Z,11.00
2023-04-26T17:23:55.256Z,12.80
2023-04-26T17:26:56.825Z,11.00
2023-04-26T17:29:58.457Z,11.30
2023-04-26T17:33:00.064Z,11.30
2023-04-26T17:36:02.615Z,11.00
2023-04-26T17:39:04.308Z,11.10
2023-04-26T17:42:05.878Z,12.70
2023-04-26T17:45:07.711Z,11.00
2023-04-26T17:48:12.810Z,11.10
2023-04-26T17:51:14.402Z,11.00
2023-04-26T17:54:16.894Z,11.10
2023-04-26T17:57:20.139Z,11.10
2023-04-26T18:00:21.889Z,10.50
2023-04-26T18:03:23.673Z,10.90
2023-04-26T18:06:26.584Z,10.90
2023-04-26T18:09:28.136Z,10.70
2023-04-26T18:12:30.694Z,12.30
2023-04-26T18:15:32.331Z,10.60
2023-04-26T18:18:33.947Z,10.10
2023-04-26T18:21:35.703Z,10.40
2023-04-26T18:24:37.553Z,11.60
2023-04-26T18:27:39.162Z,10.40
2023-04-26T18:30:40.827Z,10.40
2023-04-26T18:33:42.547Z,10.40
2023-04-26T18:36:44.104Z,11.50
2023-04-26T18:39:45.839Z,10.30
2023-04-26T18:42:47.410Z,10.50
2023-04-26T18:45:49.513Z,10.40
2023-04-26T18:48:51.150Z,10.00
2023-04-26T18:51:52.930Z,10.00
2023-04-26T18:54:54.479Z,10.40
2023-04-26T18:57:56.121Z,9.90
2023-04-26T19:00:57.876Z,10.40
2023-04-26T19:04:00.067Z,11.70
2023-04-26T19:07:01.938Z,9.30
2023-04-26T19:10:04.405Z,10.10
2023-04-26T19:13:06.215Z,9.60
2023-04-26T19:16:08.979Z,9.50
2023-04-26T19:19:11.175Z,9.40
2023-04-26T19:22:12.862Z,9.90
2023-04-26T19:25:14.794Z,9.60
2023-04-26T19:28:16.381Z,9.60
2023-04-26T19:31:17.988Z,9.80
2023-04-26T19:34:19.588Z,9.50
2023-04-26T19:37:21.537Z,9.60
2023-04-26T19:40:23.073Z,9.80
2023-04-26T19:43:24.691Z,9.10
2023-04-26T19:46:26.222Z,9.40
2023-04-26T19:49:29.167Z,9.60
2023-04-26T19:52:30.874Z,9.60
2023-04-26T19:55:32.820Z,9.70
2023-04-26T19:58:34.370Z,9.40
2023-04-26T20:01:36.379Z,9.80
2023-04-26T20:04:37.988Z,9.60
2023-04-26T20:07:39.504Z,9.30
2023-04-26T20:10:41.660Z,9.60
2023-04-26T20:13:43.962Z,9.40
2023-04-26T20:16:45.545Z,9.40
2023-04-26T20:19:47.768Z,9.40
2023-04-26T20:22:49.672Z,9.40
2023-04-26T20:25:51.521Z,9.10
2023-04-26T20:28:53.058Z,9.30
2023-04-26T20:31:55.023Z,9.60
2023-04-26T20:34:56.658Z,9.70
2023-04-26T20:37:58.200Z,9.50
2023-04-26T20:41:00.459Z,9.40
2023-04-26T20:44:02.292Z,9.70
2023-04-26T20:47:04.027Z,9.70
2023-04-26T20:50:06.157Z,9.30
2023-04-26T20:53:07.749Z,9.20
2023-04-26T20:56:09.547Z,9.10
2023-04-26T20:59:11.635Z,9.40
2023-04-26T21:02:13.515Z,9.20
2023-04-26T21:05:15.232Z,9.60
2023-04-26T21:08:16.831Z,9.20
2023-04-26T21:11:18.399Z,9.50
2023-04-26T21:14:19.923Z,9.50
2023-04-26T21:17:21.524Z,9.30
2023-04-26T21:20:23.056Z,9.10
2023-04-26T21:23:24.675Z,9.30
2023-04-26T21:26:26.330Z,9.00
2023-04-26T21:29:31.186Z,9.20
2023-04-26T21:32:32.793Z,9.20
2023-04-26T21:35:34.860Z,9.10
2023-04-26T21:38:36.402Z,10.90
2023-04-26T21:41:37.960Z,9.10
2023-04-26T21:44:39.509Z,8.90
2023-04-26T21:47:41.224Z,8.90
2023-04-26T21:50:42.803Z,9.00
2023-04-26T21:53:44.343Z,8.80
2023-04-26T21:56:46.117Z,8.90
2023-04-26T21:59:47.782Z,8.90
2023-04-26T22:02:51.356Z,8.90
2023-04-26T22:05:53.050Z,9.10
2023-04-26T22:08:54.596Z,8.80
2023-04-26T22:11:56.192Z,9.00
2023-04-26T22:14:57.864Z,8.80
2023-04-26T22:17:59.495Z,8.70
2023-04-26T22:21:01.405Z,9.00
2023-04-26T22:24:03.074Z,8.60
2023-04-26T22:27:04.724Z,8.80
2023-04-26T22:30:23.097Z,8.70
2023-04-26T22:33:26.111Z,8.70
2023-04-26T22:36:27.708Z,8.50
2023-04-26T22:39:29.208Z,8.30
2023-04-26T22:42:31.070Z,8.40
2023-04-26T22:45:33.480Z,8.20
2023-04-26T22:48:35.052Z,8.30
2023-04-26T22:51:36.753Z,7.90
2023-04-26T22:54:38.428Z,8.40
2023-04-26T22:57:40.283Z,8.30
2023-04-26T23:00:41.850Z,8.10
2023-04-26T23:03:43.444Z,9.20
2023-04-26T23:06:45.054Z,7.40
2023-04-26T23:09:47.350Z,7.80
2023-04-26T23:12:50.023Z,8.00
2023-04-26T23:15:52.310Z,7.60
2023-04-26T23:18:54.015Z,7.60
2023-04-26T23:21:55.610Z,8.00
2023-04-26T23:24:57.289Z,7.70
2023-04-26T23:27:58.904Z,7.80
2023-04-26T23:31:00.651Z,7.40
2023-04-26T23:34:02.305Z,7.60
2023-04-26T23:37:07.224Z,7.70
2023-04-26T23:40:10.145Z,7.60
2023-04-26T23:43:13.745Z,7.60
2023-04-26T23:46:15.573Z,7.40
2023-04-26T23:49:17.198Z,7.10
2023-04-26T23:52:18.831Z,9.00
2023-04-26T23:55:20.391Z,7.40
2023-04-26T23:58:22.293Z,7.20
